sensor_id;sensor_type;location;lat;lon;timestamp;temperature;humidity
57108;DHT22;42987;52.916;6.542;2023-01-10T00:00:39;5.10;99.90
57108;DHT22;42987;52.916;6.542;2023-01-10T00:03:07;5.10;99.90
57108;DHT22;42987;52.916;6.542;2023-01-10T00:05:36;5.10;99.90
57108;DHT22;42987;52.916;6.542;2023-01-10T00:08:03;5.00;99.90
57108;DHT22;42987;52.916;6.542;2023-01-10T00:10:30;5.00;99.90
57108;DHT22;42987;52.916;6.542;2023-01-10T00:12:56;5.00;99.90
57108;DHT22;42987;52.916;6.542;2023-01-10T00:15:41;5.00;99.90
57108;DHT22;42987;52.916;6.542;2023-01-10T00:18:07;5.00;99.90
57108;DHT22;42987;52.916;6.542;2023-01-10T00:20:33;5.00;99.90
57108;DHT22;42987;52.916;6.542;2023-01-10T00:22:59;5.00;99.90
57108;DHT22;42987;52.916;6.542;2023-01-10T00:25:26;5.00;99.90
57108;DHT22;42987;52.916;6.542;2023-01-10T00:27:53;5.10;99.90
57108;DHT22;42987;52.916;6.542;2023-01-10T00:30:39;5.10;99.90
57108;DHT22;42987;52.916;6.542;2023-01-10T00:33:06;5.10;99.90
57108;DHT22;42987;52.916;6.542;2023-01-10T00:35:32;5.10;99.90
57108;DHT22;42987;52.916;6.542;2023-01-10T00:37:58;5.10;99.90
57108;DHT22;42987;52.916;6.542;2023-01-10T00:40:33;5.20;99.90
57108;DHT22;42987;52.916;6.542;2023-01-10T00:42:59;5.20;99.90
57108;DHT22;42987;52.916;6.542;2023-01-10T00:45:45;5.20;99.90
57108;DHT22;42987;52.916;6.542;2023-01-10T00:48:15;5.30;99.90
57108;DHT22;42987;52.916;6.542;2023-01-10T00:50:41;5.30;99.90
57108;DHT22;42987;52.916;6.542;2023-01-10T00:53:07;5.30;99.90
57108;DHT22;42987;52.916;6.542;2023-01-10T00:55:37;5.40;99.90
57108;DHT22;42987;52.916;6.542;2023-01-10T00:58:03;5.50;99.90
57108;DHT22;42987;52.916;6.542;2023-01-10T01:00:29;5.50;99.90
57108;DHT22;42987;52.916;6.542;2023-01-10T01:02:55;5.50;99.90
57108;DHT22;42987;52.916;6.542;2023-01-10T01:05:21;5.60;99.90
57108;DHT22;42987;52.916;6.542;2023-01-10T01:07:50;5.60;99.90
57108;DHT22;42987;52.916;6.542;2023-01-10T01:10:17;5.60;99.90
57108;DHT22;42987;52.916;6.542;2023-01-10T01:13:17;5.60;99.90
57108;DHT22;42987;52.916;6.542;2023-01-10T01:15:43;5.70;99.90
57108;DHT22;42987;52.916;6.542;2023-01-10T01:18:12;5.60;99.90
57108;DHT22;42987;52.916;6.542;2023-01-10T01:20:39;5.60;99.90
57108;DHT22;42987;52.916;6.542;2023-01-10T01:23:05;5.60;99.90
57108;DHT22;42987;52.916;6.542;2023-01-10T01:25:31;5.60;99.90
57108;DHT22;42987;52.916;6.542;2023-01-10T01:27:57;5.70;99.90
57108;DHT22;42987;52.916;6.542;2023-01-10T01:30:24;5.70;99.90
57108;DHT22;42987;52.916;6.542;2023-01-10T01:32:49;5.70;99.90
57108;DHT22;42987;52.916;6.542;2023-01-10T01:35:16;5.80;99.90
57108;DHT22;42987;52.916;6.542;2023-01-10T01:37:42;5.80;99.90
57108;DHT22;42987;52.916;6.542;2023-01-10T01:40:19;5.80;99.90
57108;DHT22;42987;52.916;6.542;2023-01-10T01:42:46;5.90;99.90
57108;DHT22;42987;52.916;6.542;2023-01-10T01:47:55;5.80;99.90
57108;DHT22;42987;52.916;6.542;2023-01-10T01:50:30;5.70;99.90
57108;DHT22;42987;52.916;6.542;2023-01-10T01:52:58;5.70;99.90
57108;DHT22;42987;52.916;6.542;2023-01-10T01:55:26;5.70;99.90
57108;DHT22;42987;52.916;6.542;2023-01-10T01:57:56;5.60;99.90
57108;DHT22;42987;52.916;6.542;2023-01-10T02:00:24;5.60;99.90
57108;DHT22;42987;52.916;6.542;2023-01-10T02:02:59;5.50;99.90
57108;DHT22;42987;52.916;6.542;2023-01-10T02:05:27;5.50;99.90
57108;DHT22;42987;52.916;6.542;2023-01-10T02:07:55;5.50;99.90
57108;DHT22;42987;52.916;6.542;2023-01-10T02:13:04;5.50;99.90
57108;DHT22;42987;52.916;6.542;2023-01-10T02:15:30;5.50;99.90
57108;DHT22;42987;52.916;6.542;2023-01-10T02:18:00;5.50;99.90
57108;DHT22;42987;52.916;6.542;2023-01-10T02:20:27;5.50;99.90
57108;DHT22;42987;52.916;6.542;2023-01-10T02:31:51;5.50;99.90
57108;DHT22;42987;52.916;6.542;2023-01-10T02:34:34;5.50;99.90
57108;DHT22;42987;52.916;6.542;2023-01-10T02:37:18;5.40;99.90
57108;DHT22;42987;52.916;6.542;2023-01-10T02:40:07;5.50;99.90
57108;DHT22;42987;52.916;6.542;2023-01-10T02:45:34;5.50;99.90
57108;DHT22;42987;52.916;6.542;2023-01-10T02:48:01;5.40;99.90
57108;DHT22;42987;52.916;6.542;2023-01-10T02:50:28;5.40;99.90
57108;DHT22;42987;52.916;6.542;2023-01-10T02:52:59;5.40;99.90
57108;DHT22;42987;52.916;6.542;2023-01-10T02:55:38;5.40;99.90
57108;DHT22;42987;52.916;6.542;2023-01-10T03:01:36;5.50;99.90
57108;DHT22;42987;52.916;6.542;2023-01-10T03:07:07;5.40;99.90
57108;DHT22;42987;52.916;6.542;2023-01-10T03:09:43;5.40;99.90
57108;DHT22;42987;52.916;6.542;2023-01-10T03:15:15;5.50;99.90
57108;DHT22;42987;52.916;6.542;2023-01-10T03:17:46;5.50;99.90
57108;DHT22;42987;52.916;6.542;2023-01-10T03:20:14;5.50;99.90
57108;DHT22;42987;52.916;6.542;2023-01-10T03:22:40;5.50;99.90
57108;DHT22;42987;52.916;6.542;2023-01-10T03:25:09;5.60;99.90
57108;DHT22;42987;52.916;6.542;2023-01-10T03:28:03;5.60;99.90
57108;DHT22;42987;52.916;6.542;2023-01-10T03:30:53;5.70;99.90
57108;DHT22;42987;52.916;6.542;2023-01-10T03:33:26;5.70;99.90
57108;DHT22;42987;52.916;6.542;2023-01-10T03:41:47;5.70;99.90
57108;DHT22;42987;52.916;6.542;2023-01-10T03:44:17;5.70;99.90
57108;DHT22;42987;52.916;6.542;2023-01-10T03:49:55;5.80;99.90
57108;DHT22;42987;52.916;6.542;2023-01-10T03:52:23;5.80;99.90
57108;DHT22;42987;52.916;6.542;2023-01-10T03:54:50;5.80;99.90
57108;DHT22;42987;52.916;6.542;2023-01-10T03:57:19;5.80;99.90
57108;DHT22;42987;52.916;6.542;2023-01-10T03:59:45;5.80;99.90
57108;DHT22;42987;52.916;6.542;2023-01-10T04:02:11;5.80;99.90
57108;DHT22;42987;52.916;6.542;2023-01-10T04:04:37;5.80;99.90
57108;DHT22;42987;52.916;6.542;2023-01-10T04:07:03;5.80;99.90
57108;DHT22;42987;52.916;6.542;2023-01-10T04:09:30;5.80;99.90
57108;DHT22;42987;52.916;6.542;2023-01-10T04:11:56;5.80;99.90
57108;DHT22;42987;52.916;6.542;2023-01-10T04:14:22;5.80;99.90
57108;DHT22;42987;52.916;6.542;2023-01-10T04:16:48;5.80;99.90
57108;DHT22;42987;52.916;6.542;2023-01-10T04:19:13;5.70;99.90
57108;DHT22;42987;52.916;6.542;2023-01-10T04:21:39;5.70;99.90
57108;DHT22;42987;52.916;6.542;2023-01-10T04:24:05;5.70;99.90
57108;DHT22;42987;52.916;6.542;2023-01-10T04:26:31;5.70;99.90
57108;DHT22;42987;52.916;6.542;2023-01-10T04:28:57;5.80;99.90
57108;DHT22;42987;52.916;6.542;2023-01-10T04:31:23;5.80;99.90
57108;DHT22;42987;52.916;6.542;2023-01-10T04:33:48;5.80;99.90
57108;DHT22;42987;52.916;6.542;2023-01-10T04:36:14;5.80;99.90
57108;DHT22;42987;52.916;6.542;2023-01-10T04:38:40;5.90;99.90
57108;DHT22;42987;52.916;6.542;2023-01-10T04:41:06;5.90;99.90
57108;DHT22;42987;52.916;6.542;2023-01-10T04:43:32;5.90;99.90
57108;DHT22;42987;52.916;6.542;2023-01-10T04:45:57;5.90;99.90
57108;DHT22;42987;52.916;6.542;2023-01-10T04:48:23;5.90;99.90
57108;DHT22;42987;52.916;6.542;2023-01-10T04:50:52;5.90;99.90
57108;DHT22;42987;52.916;6.542;2023-01-10T04:53:19;6.00;99.90
57108;DHT22;42987;52.916;6.542;2023-01-10T04:55:45;6.00;99.90
57108;DHT22;42987;52.916;6.542;2023-01-10T04:58:12;6.00;99.90
57108;DHT22;42987;52.916;6.542;2023-01-10T05:00:38;6.00;99.90
57108;DHT22;42987;52.916;6.542;2023-01-10T05:03:04;6.00;99.90
57108;DHT22;42987;52.916;6.542;2023-01-10T05:05:30;6.00;99.90
57108;DHT22;42987;52.916;6.542;2023-01-10T05:07:56;6.00;99.90
57108;DHT22;42987;52.916;6.542;2023-01-10T05:10:23;6.00;99.90
57108;DHT22;42987;52.916;6.542;2023-01-10T05:12:49;6.00;99.90
57108;DHT22;42987;52.916;6.542;2023-01-10T05:15:15;6.00;99.90
57108;DHT22;42987;52.916;6.542;2023-01-10T05:17:41;6.00;99.90
57108;DHT22;42987;52.916;6.542;2023-01-10T05:20:08;6.00;99.90
57108;DHT22;42987;52.916;6.542;2023-01-10T05:22:34;6.00;99.90
57108;DHT22;42987;52.916;6.542;2023-01-10T05:25:00;5.90;99.90
57108;DHT22;42987;52.916;6.542;2023-01-10T05:27:26;5.90;99.90
57108;DHT22;42987;52.916;6.542;2023-01-10T05:29:51;5.90;99.90
57108;DHT22;42987;52.916;6.542;2023-01-10T05:32:17;5.90;99.90
57108;DHT22;42987;52.916;6.542;2023-01-10T05:34:43;5.90;99.90
57108;DHT22;42987;52.916;6.542;2023-01-10T05:37:09;5.90;99.90
57108;DHT22;42987;52.916;6.542;2023-01-10T05:39:34;5.90;99.90
57108;DHT22;42987;52.916;6.542;2023-01-10T05:42:04;5.90;99.90
57108;DHT22;42987;52.916;6.542;2023-01-10T05:44:30;6.00;99.90
57108;DHT22;42987;52.916;6.542;2023-01-10T05:46:56;6.00;99.90
57108;DHT22;42987;52.916;6.542;2023-01-10T05:49:21;6.00;99.90
57108;DHT22;42987;52.916;6.542;2023-01-10T05:51:47;6.00;99.90
57108;DHT22;42987;52.916;6.542;2023-01-10T05:54:13;6.00;99.90
57108;DHT22;42987;52.916;6.542;2023-01-10T05:56:39;6.00;99.90
57108;DHT22;42987;52.916;6.542;2023-01-10T05:59:05;6.00;99.90
57108;DHT22;42987;52.916;6.542;2023-01-10T06:01:30;6.00;99.90
57108;DHT22;42987;52.916;6.542;2023-01-10T06:03:56;6.00;99.90
57108;DHT22;42987;52.916;6.542;2023-01-10T06:06:22;6.00;99.90
57108;DHT22;42987;52.916;6.542;2023-01-10T06:08:48;6.10;99.90
57108;DHT22;42987;52.916;6.542;2023-01-10T06:11:13;6.10;99.90
57108;DHT22;42987;52.916;6.542;2023-01-10T06:13:39;6.10;99.90
57108;DHT22;42987;52.916;6.542;2023-01-10T06:16:05;6.10;99.90
57108;DHT22;42987;52.916;6.542;2023-01-10T06:18:31;6.10;99.90
57108;DHT22;42987;52.916;6.542;2023-01-10T06:20:57;6.10;99.90
57108;DHT22;42987;52.916;6.542;2023-01-10T06:23:23;6.10;99.90
57108;DHT22;42987;52.916;6.542;2023-01-10T06:25:49;6.10;99.90
57108;DHT22;42987;52.916;6.542;2023-01-10T06:28:14;6.10;99.90
57108;DHT22;42987;52.916;6.542;2023-01-10T06:30:41;6.10;99.90
57108;DHT22;42987;52.916;6.542;2023-01-10T06:33:09;6.10;99.90
57108;DHT22;42987;52.916;6.542;2023-01-10T06:35:38;6.10;99.90
57108;DHT22;42987;52.916;6.542;2023-01-10T06:38:05;6.00;99.90
57108;DHT22;42987;52.916;6.542;2023-01-10T06:40:30;6.00;99.90
57108;DHT22;42987;52.916;6.542;2023-01-10T06:42:56;6.00;99.90
57108;DHT22;42987;52.916;6.542;2023-01-10T06:45:23;6.00;99.90
57108;DHT22;42987;52.916;6.542;2023-01-10T06:47:49;6.00;99.90
57108;DHT22;42987;52.916;6.542;2023-01-10T06:50:16;5.90;99.90
57108;DHT22;42987;52.916;6.542;2023-01-10T06:52:45;5.90;99.90
57108;DHT22;42987;52.916;6.542;2023-01-10T06:55:11;5.90;99.90
57108;DHT22;42987;52.916;6.542;2023-01-10T06:57:37;5.90;99.90
57108;DHT22;42987;52.916;6.542;2023-01-10T07:00:05;6.00;99.90
57108;DHT22;42987;52.916;6.542;2023-01-10T07:02:31;6.00;99.90
57108;DHT22;42987;52.916;6.542;2023-01-10T07:04:57;5.90;99.90
57108;DHT22;42987;52.916;6.542;2023-01-10T07:07:23;5.90;99.90
57108;DHT22;42987;52.916;6.542;2023-01-10T07:09:48;5.90;99.90
57108;DHT22;42987;52.916;6.542;2023-01-10T07:12:14;5.90;99.90
57108;DHT22;42987;52.916;6.542;2023-01-10T07:14:40;5.90;99.90
57108;DHT22;42987;52.916;6.542;2023-01-10T07:17:06;5.80;99.90
57108;DHT22;42987;52.916;6.542;2023-01-10T07:19:32;5.80;99.90
57108;DHT22;42987;52.916;6.542;2023-01-10T07:21:57;5.80;99.90
57108;DHT22;42987;52.916;6.542;2023-01-10T07:24:23;5.70;99.90
57108;DHT22;42987;52.916;6.542;2023-01-10T07:26:49;5.70;99.90
57108;DHT22;42987;52.916;6.542;2023-01-10T07:29:15;5.70;99.90
57108;DHT22;42987;52.916;6.542;2023-01-10T07:31:41;5.70;99.90
57108;DHT22;42987;52.916;6.542;2023-01-10T07:34:07;5.70;99.90
57108;DHT22;42987;52.916;6.542;2023-01-10T07:36:33;5.70;99.90
57108;DHT22;42987;52.916;6.542;2023-01-10T07:39:01;5.70;99.90
57108;DHT22;42987;52.916;6.542;2023-01-10T07:41:27;5.60;99.90
57108;DHT22;42987;52.916;6.542;2023-01-10T07:43:53;5.70;99.90
57108;DHT22;42987;52.916;6.542;2023-01-10T07:46:19;5.60;99.90
57108;DHT22;42987;52.916;6.542;2023-01-10T07:48:44;5.70;99.90
57108;DHT22;42987;52.916;6.542;2023-01-10T07:51:11;5.70;99.90
57108;DHT22;42987;52.916;6.542;2023-01-10T07:53:37;5.70;99.90
57108;DHT22;42987;52.916;6.542;2023-01-10T07:56:04;5.70;99.90
57108;DHT22;42987;52.916;6.542;2023-01-10T07:58:30;5.70;99.90
57108;DHT22;42987;52.916;6.542;2023-01-10T08:00:58;5.70;99.90
57108;DHT22;42987;52.916;6.542;2023-01-10T08:03:25;5.70;99.90
57108;DHT22;42987;52.916;6.542;2023-01-10T08:05:57;5.70;99.90
57108;DHT22;42987;52.916;6.542;2023-01-10T08:08:23;5.70;99.90
57108;DHT22;42987;52.916;6.542;2023-01-10T08:10:49;5.70;99.90
57108;DHT22;42987;52.916;6.542;2023-01-10T08:13:15;5.80;99.90
57108;DHT22;42987;52.916;6.542;2023-01-10T08:15:41;5.80;99.90
57108;DHT22;42987;52.916;6.542;2023-01-10T08:18:07;5.80;99.90
57108;DHT22;42987;52.916;6.542;2023-01-10T08:20:32;5.80;99.90
57108;DHT22;42987;52.916;6.542;2023-01-10T08:22:59;5.80;99.90
57108;DHT22;42987;52.916;6.542;2023-01-10T08:25:25;5.80;99.90
57108;DHT22;42987;52.916;6.542;2023-01-10T08:27:51;5.80;99.90
57108;DHT22;42987;52.916;6.542;2023-01-10T08:30:17;5.80;99.90
57108;DHT22;42987;52.916;6.542;2023-01-10T08:32:44;5.90;99.90
57108;DHT22;42987;52.916;6.542;2023-01-10T08:35:10;5.90;99.90
57108;DHT22;42987;52.916;6.542;2023-01-10T08:37:36;5.90;99.90
57108;DHT22;42987;52.916;6.542;2023-01-10T08:40:01;6.00;99.90
57108;DHT22;42987;52.916;6.542;2023-01-10T08:42:30;6.00;99.90
57108;DHT22;42987;52.916;6.542;2023-01-10T08:44:56;6.00;99.90
57108;DHT22;42987;52.916;6.542;2023-01-10T08:47:22;6.10;99.90
57108;DHT22;42987;52.916;6.542;2023-01-10T08:49:48;6.10;99.90
57108;DHT22;42987;52.916;6.542;2023-01-10T08:52:14;6.20;99.90
57108;DHT22;42987;52.916;6.542;2023-01-10T08:54:40;6.20;99.90
57108;DHT22;42987;52.916;6.542;2023-01-10T08:57:06;6.10;99.90
57108;DHT22;42987;52.916;6.542;2023-01-10T08:59:32;6.10;99.90
57108;DHT22;42987;52.916;6.542;2023-01-10T09:01:57;6.10;99.90
57108;DHT22;42987;52.916;6.542;2023-01-10T09:04:25;6.10;99.90
57108;DHT22;42987;52.916;6.542;2023-01-10T09:06:53;6.10;99.90
57108;DHT22;42987;52.916;6.542;2023-01-10T09:09:19;6.10;99.90
57108;DHT22;42987;52.916;6.542;2023-01-10T09:11:45;6.10;99.90
57108;DHT22;42987;52.916;6.542;2023-01-10T09:14:11;6.10;99.90
57108;DHT22;42987;52.916;6.542;2023-01-10T09:16:36;6.10;99.90
57108;DHT22;42987;52.916;6.542;2023-01-10T09:19:02;6.20;99.90
57108;DHT22;42987;52.916;6.542;2023-01-10T09:21:28;6.20;99.90
57108;DHT22;42987;52.916;6.542;2023-01-10T09:23:54;6.20;99.90
57108;DHT22;42987;52.916;6.542;2023-01-10T09:26:20;6.40;99.90
57108;DHT22;42987;52.916;6.542;2023-01-10T09:28:46;6.20;99.90
57108;DHT22;42987;52.916;6.542;2023-01-10T09:31:13;6.30;99.90
57108;DHT22;42987;52.916;6.542;2023-01-10T09:33:39;6.30;99.90
57108;DHT22;42987;52.916;6.542;2023-01-10T09:36:07;6.40;99.90
57108;DHT22;42987;52.916;6.542;2023-01-10T09:38:34;6.40;99.90
57108;DHT22;42987;52.916;6.542;2023-01-10T09:49:23;6.50;99.90
57108;DHT22;42987;52.916;6.542;2023-01-10T09:51:52;6.50;99.90
57108;DHT22;42987;52.916;6.542;2023-01-10T09:54:30;6.50;99.90
57108;DHT22;42987;52.916;6.542;2023-01-10T09:56:59;6.60;99.90
57108;DHT22;42987;52.916;6.542;2023-01-10T09:59:36;6.60;99.90
57108;DHT22;42987;52.916;6.542;2023-01-10T10:02:33;6.70;99.90
57108;DHT22;42987;52.916;6.542;2023-01-10T10:05:25;6.70;99.90
57108;DHT22;42987;52.916;6.542;2023-01-10T10:08:01;6.80;99.90
57108;DHT22;42987;52.916;6.542;2023-01-10T10:10:36;6.80;99.90
57108;DHT22;42987;52.916;6.542;2023-01-10T10:21:26;6.90;99.90
57108;DHT22;42987;52.916;6.542;2023-01-10T10:29:48;7.00;99.90
57108;DHT22;42987;52.916;6.542;2023-01-10T10:35:15;7.00;99.90
57108;DHT22;42987;52.916;6.542;2023-01-10T10:37:48;7.00;99.90
57108;DHT22;42987;52.916;6.542;2023-01-10T10:40:18;7.10;99.90
57108;DHT22;42987;52.916;6.542;2023-01-10T10:42:54;7.10;99.90
57108;DHT22;42987;52.916;6.542;2023-01-10T10:45:37;7.00;99.90
57108;DHT22;42987;52.916;6.542;2023-01-10T10:48:24;7.00;99.90
57108;DHT22;42987;52.916;6.542;2023-01-10T10:51:04;7.00;99.90
57108;DHT22;42987;52.916;6.542;2023-01-10T10:53:35;7.00;99.90
57108;DHT22;42987;52.916;6.542;2023-01-10T10:56:02;7.10;99.90
57108;DHT22;42987;52.916;6.542;2023-01-10T10:58:29;7.10;99.90
57108;DHT22;42987;52.916;6.542;2023-01-10T11:00:57;7.10;99.90
57108;DHT22;42987;52.916;6.542;2023-01-10T11:06:01;7.10;99.90
57108;DHT22;42987;52.916;6.542;2023-01-10T11:08:28;7.10;99.90
57108;DHT22;42987;52.916;6.542;2023-01-10T11:10:57;7.10;99.90
57108;DHT22;42987;52.916;6.542;2023-01-10T11:13:30;7.10;99.90
57108;DHT22;42987;52.916;6.542;2023-01-10T11:16:06;7.10;99.90
57108;DHT22;42987;52.916;6.542;2023-01-10T11:18:32;7.10;99.90
57108;DHT22;42987;52.916;6.542;2023-01-10T11:21:11;7.10;99.90
57108;DHT22;42987;52.916;6.542;2023-01-10T11:23:52;7.10;99.90
57108;DHT22;42987;52.916;6.542;2023-01-10T11:26:34;7.10;99.90
57108;DHT22;42987;52.916;6.542;2023-01-10T11:29:37;7.10;99.90
57108;DHT22;42987;52.916;6.542;2023-01-10T11:32:12;7.00;99.90
57108;DHT22;42987;52.916;6.542;2023-01-10T11:34:41;7.00;99.90
57108;DHT22;42987;52.916;6.542;2023-01-10T11:39:41;7.10;99.90
57108;DHT22;42987;52.916;6.542;2023-01-10T11:42:27;7.10;99.90
57108;DHT22;42987;52.916;6.542;2023-01-10T11:47:39;7.10;99.90
57108;DHT22;42987;52.916;6.542;2023-01-10T11:50:08;7.10;99.90
57108;DHT22;42987;52.916;6.542;2023-01-10T11:52:35;7.10;99.90
57108;DHT22;42987;52.916;6.542;2023-01-10T11:55:07;7.10;99.90
57108;DHT22;42987;52.916;6.542;2023-01-10T11:57:33;7.10;99.90
57108;DHT22;42987;52.916;6.542;2023-01-10T12:00:04;7.10;99.90
57108;DHT22;42987;52.916;6.542;2023-01-10T12:02:36;7.10;99.90
57108;DHT22;42987;52.916;6.542;2023-01-10T12:05:11;7.10;99.90
57108;DHT22;42987;52.916;6.542;2023-01-10T12:08:02;7.00;99.90
57108;DHT22;42987;52.916;6.542;2023-01-10T12:10:33;7.10;99.90
57108;DHT22;42987;52.916;6.542;2023-01-10T12:13:12;7.10;99.90
57108;DHT22;42987;52.916;6.542;2023-01-10T12:15:39;7.10;99.90
57108;DHT22;42987;52.916;6.542;2023-01-10T12:18:05;7.10;99.90
57108;DHT22;42987;52.916;6.542;2023-01-10T12:20:36;7.10;99.90
57108;DHT22;42987;52.916;6.542;2023-01-10T12:23:09;7.00;99.90
57108;DHT22;42987;52.916;6.542;2023-01-10T12:25:39;7.00;99.90
57108;DHT22;42987;52.916;6.542;2023-01-10T12:28:26;7.10;99.90
57108;DHT22;42987;52.916;6.542;2023-01-10T12:30:56;7.10;99.90
57108;DHT22;42987;52.916;6.542;2023-01-10T12:33:36;7.10;99.90
57108;DHT22;42987;52.916;6.542;2023-01-10T12:39:18;7.10;99.90
57108;DHT22;42987;52.916;6.542;2023-01-10T12:41:57;7.00;99.90
57108;DHT22;42987;52.916;6.542;2023-01-10T12:44:48;7.10;99.90
57108;DHT22;42987;52.916;6.542;2023-01-10T12:50:16;7.10;99.90
57108;DHT22;42987;52.916;6.542;2023-01-10T12:55:24;7.10;99.90
57108;DHT22;42987;52.916;6.542;2023-01-10T12:58:01;7.00;99.90
57108;DHT22;42987;52.916;6.542;2023-01-10T13:00:41;7.00;99.90
57108;DHT22;42987;52.916;6.542;2023-01-10T13:03:14;7.00;99.90
57108;DHT22;42987;52.916;6.542;2023-01-10T13:05:41;7.00;99.90
57108;DHT22;42987;52.916;6.542;2023-01-10T13:08:13;7.00;99.90
57108;DHT22;42987;52.916;6.542;2023-01-10T13:10:46;7.00;99.90
57108;DHT22;42987;52.916;6.542;2023-01-10T13:13:32;7.00;99.90
57108;DHT22;42987;52.916;6.542;2023-01-10T13:21:27;6.90;99.90
57108;DHT22;42987;52.916;6.542;2023-01-10T13:24:01;6.90;99.90
57108;DHT22;42987;52.916;6.542;2023-01-10T13:26:58;6.90;99.90
57108;DHT22;42987;52.916;6.542;2023-01-10T13:29:29;6.90;99.90
57108;DHT22;42987;52.916;6.542;2023-01-10T13:32:00;6.90;99.90
57108;DHT22;42987;52.916;6.542;2023-01-10T13:34:33;6.80;99.90
57108;DHT22;42987;52.916;6.542;2023-01-10T13:37:03;6.80;99.90
57108;DHT22;42987;52.916;6.542;2023-01-10T13:39:40;6.80;99.90
57108;DHT22;42987;52.916;6.542;2023-01-10T13:42:21;6.80;99.90
57108;DHT22;42987;52.916;6.542;2023-01-10T13:55:54;6.70;99.90
57108;DHT22;42987;52.916;6.542;2023-01-10T14:01:35;6.60;99.90
57108;DHT22;42987;52.916;6.542;2023-01-10T14:04:32;6.60;99.90
57108;DHT22;42987;52.916;6.542;2023-01-10T14:09:45;6.60;99.90
57108;DHT22;42987;52.916;6.542;2023-01-10T14:12:32;6.60;99.90
57108;DHT22;42987;52.916;6.542;2023-01-10T14:15:07;6.60;99.90
57108;DHT22;42987;52.916;6.542;2023-01-10T14:18:00;6.60;99.90
57108;DHT22;42987;52.916;6.542;2023-01-10T14:20:29;6.60;99.90
57108;DHT22;42987;52.916;6.542;2023-01-10T14:25:44;6.60;99.90
57108;DHT22;42987;52.916;6.542;2023-01-10T14:28:31;6.60;99.90
57108;DHT22;42987;52.916;6.542;2023-01-10T14:31:05;6.60;99.90
57108;DHT22;42987;52.916;6.542;2023-01-10T14:33:32;6.60;99.90
57108;DHT22;42987;52.916;6.542;2023-01-10T14:36:02;6.60;99.90
57108;DHT22;42987;52.916;6.542;2023-01-10T14:38:36;6.60;99.90
57108;DHT22;42987;52.916;6.542;2023-01-10T14:43:44;6.60;99.90
57108;DHT22;42987;52.916;6.542;2023-01-10T14:46:21;6.70;99.90
57108;DHT22;42987;52.916;6.542;2023-01-10T14:48:50;6.60;99.90
57108;DHT22;42987;52.916;6.542;2023-01-10T14:51:23;6.70;99.90
57108;DHT22;42987;52.916;6.542;2023-01-10T14:53:58;6.60;99.90
57108;DHT22;42987;52.916;6.542;2023-01-10T14:56:29;6.70;99.90
57108;DHT22;42987;52.916;6.542;2023-01-10T14:59:15;6.60;99.90
57108;DHT22;42987;52.916;6.542;2023-01-10T15:01:41;6.60;99.90
57108;DHT22;42987;52.916;6.542;2023-01-10T15:04:16;6.60;99.90
57108;DHT22;42987;52.916;6.542;2023-01-10T15:09:17;6.60;99.90
57108;DHT22;42987;52.916;6.542;2023-01-10T15:11:43;6.60;99.90
57108;DHT22;42987;52.916;6.542;2023-01-10T15:14:14;6.60;99.90
57108;DHT22;42987;52.916;6.542;2023-01-10T15:16:45;6.70;99.90
57108;DHT22;42987;52.916;6.542;2023-01-10T15:19:19;6.60;99.90
57108;DHT22;42987;52.916;6.542;2023-01-10T15:21:46;6.70;99.90
57108;DHT22;42987;52.916;6.542;2023-01-10T15:26:53;6.70;99.90
57108;DHT22;42987;52.916;6.542;2023-01-10T15:29:23;6.70;99.90
57108;DHT22;42987;52.916;6.542;2023-01-10T15:31:51;6.70;99.90
57108;DHT22;42987;52.916;6.542;2023-01-10T15:34:23;6.70;99.90
57108;DHT22;42987;52.916;6.542;2023-01-10T15:36:55;6.70;99.90
57108;DHT22;42987;52.916;6.542;2023-01-10T15:39:30;6.70;99.90
57108;DHT22;42987;52.916;6.542;2023-01-10T15:42:00;6.70;99.90
57108;DHT22;42987;52.916;6.542;2023-01-10T15:44:43;6.80;99.90
57108;DHT22;42987;52.916;6.542;2023-01-10T15:50:36;6.80;99.90
57108;DHT22;42987;52.916;6.542;2023-01-10T15:53:06;6.80;99.90
57108;DHT22;42987;52.916;6.542;2023-01-10T15:55:48;6.80;99.90
57108;DHT22;42987;52.916;6.542;2023-01-10T15:58:31;6.90;99.90
57108;DHT22;42987;52.916;6.542;2023-01-10T16:01:01;6.90;99.90
57108;DHT22;42987;52.916;6.542;2023-01-10T16:03:33;6.90;99.90
57108;DHT22;42987;52.916;6.542;2023-01-10T16:06:00;6.80;99.90
57108;DHT22;42987;52.916;6.542;2023-01-10T16:08:31;6.90;99.90
57108;DHT22;42987;52.916;6.542;2023-01-10T16:11:02;6.80;99.90
57108;DHT22;42987;52.916;6.542;2023-01-10T16:13:30;6.70;99.90
57108;DHT22;42987;52.916;6.542;2023-01-10T16:15:59;6.70;99.90
57108;DHT22;42987;52.916;6.542;2023-01-10T16:18:26;6.70;99.90
57108;DHT22;42987;52.916;6.542;2023-01-10T16:20:55;6.70;99.90
57108;DHT22;42987;52.916;6.542;2023-01-10T16:23:27;6.70;99.90
57108;DHT22;42987;52.916;6.542;2023-01-10T16:25:57;6.70;99.90
57108;DHT22;42987;52.916;6.542;2023-01-10T16:28:24;6.60;99.90
57108;DHT22;42987;52.916;6.542;2023-01-10T16:30:52;6.60;99.90
57108;DHT22;42987;52.916;6.542;2023-01-10T16:33:21;6.60;99.90
57108;DHT22;42987;52.916;6.542;2023-01-10T16:35:55;6.60;99.90
57108;DHT22;42987;52.916;6.542;2023-01-10T16:38:23;6.60;99.90
57108;DHT22;42987;52.916;6.542;2023-01-10T16:41:01;6.60;99.90
57108;DHT22;42987;52.916;6.542;2023-01-10T16:43:50;6.60;99.90
57108;DHT22;42987;52.916;6.542;2023-01-10T16:46:16;6.50;99.90
57108;DHT22;42987;52.916;6.542;2023-01-10T16:48:42;6.50;99.90
57108;DHT22;42987;52.916;6.542;2023-01-10T16:51:28;6.50;99.90
57108;DHT22;42987;52.916;6.542;2023-01-10T16:53:57;6.50;99.90
57108;DHT22;42987;52.916;6.542;2023-01-10T16:56:25;6.50;99.90
57108;DHT22;42987;52.916;6.542;2023-01-10T16:58:52;6.40;99.90
57108;DHT22;42987;52.916;6.542;2023-01-10T17:01:43;6.50;99.90
57108;DHT22;42987;52.916;6.542;2023-01-10T17:04:13;6.50;99.90
57108;DHT22;42987;52.916;6.542;2023-01-10T17:06:40;6.40;99.90
57108;DHT22;42987;52.916;6.542;2023-01-10T17:09:10;6.50;99.90
57108;DHT22;42987;52.916;6.542;2023-01-10T17:11:41;6.50;99.90
57108;DHT22;42987;52.916;6.542;2023-01-10T17:14:11;6.50;99.90
57108;DHT22;42987;52.916;6.542;2023-01-10T17:16:41;6.50;99.90
57108;DHT22;42987;52.916;6.542;2023-01-10T17:19:07;6.60;99.90
57108;DHT22;42987;52.916;6.542;2023-01-10T17:21:33;6.70;99.90
57108;DHT22;42987;52.916;6.542;2023-01-10T17:23:59;6.60;99.90
57108;DHT22;42987;52.916;6.542;2023-01-10T17:26:24;6.60;99.90
57108;DHT22;42987;52.916;6.542;2023-01-10T17:28:50;6.70;99.90
57108;DHT22;42987;52.916;6.542;2023-01-10T17:31:17;6.70;99.90
57108;DHT22;42987;52.916;6.542;2023-01-10T17:33:44;6.60;99.90
57108;DHT22;42987;52.916;6.542;2023-01-10T17:36:09;6.60;99.90
57108;DHT22;42987;52.916;6.542;2023-01-10T17:38:37;6.60;99.90
57108;DHT22;42987;52.916;6.542;2023-01-10T17:41:06;6.60;99.90
57108;DHT22;42987;52.916;6.542;2023-01-10T17:43:32;6.60;99.90
57108;DHT22;42987;52.916;6.542;2023-01-10T17:45:58;6.60;99.90
57108;DHT22;42987;52.916;6.542;2023-01-10T17:48:25;6.60;99.90
57108;DHT22;42987;52.916;6.542;2023-01-10T17:50:56;6.70;99.90
57108;DHT22;42987;52.916;6.542;2023-01-10T17:53:22;6.60;99.90
57108;DHT22;42987;52.916;6.542;2023-01-10T17:55:49;6.60;99.90